createdAt,value
2022-09-02T00:02:50.456Z,48.39
2022-09-02T00:07:57.687Z,48.35
2022-09-02T00:13:00.726Z,48.94
2022-09-02T00:18:04.768Z,48.95
2022-09-02T00:23:09.504Z,48.79
2022-09-02T00:28:13.867Z,49.08
2022-09-02T00:33:18.686Z,50.05
2022-09-02T00:38:23.089Z,50.50
2022-09-02T00:43:38.964Z,50.81
2022-09-02T00:48:48.208Z,50.90
2022-09-02T00:53:52.813Z,50.86
2022-09-02T00:58:57.234Z,50.94
2022-09-02T01:04:00.702Z,50.83
2022-09-02T01:09:09.457Z,50.89
2022-09-02T01:14:13.692Z,50.55
2022-09-02T01:19:22.962Z,50.74
2022-09-02T01:24:30.902Z,50.67
2022-09-02T01:29:33.801Z,50.64
2022-09-02T01:34:38.044Z,50.56
2022-09-02T01:39:42.447Z,50.90
2022-09-02T01:44:46.412Z,51.16
2022-09-02T01:49:51.322Z,51.04
2022-09-02T01:54:56.502Z,51.47
2022-09-02T02:00:01.314Z,51.44
2022-09-02T02:05:05.204Z,51.71
2022-09-02T02:10:10.633Z,52.01
2022-09-02T02:15:17.200Z,52.04
2022-09-02T02:20:22.145Z,52.24
2022-09-02T02:25:26.626Z,52.40
2022-09-02T02:30:30.602Z,52.51
2022-09-02T02:35:34.717Z,52.80
2022-09-02T02:40:40.120Z,53.19
2022-09-02T02:45:43.157Z,53.67
2022-09-02T02:50:46.145Z,54.09
2022-09-02T02:55:51.540Z,54.49
2022-09-02T03:00:54.771Z,54.50
2022-09-02T03:05:58.129Z,54.91
2022-09-02T03:11:05.833Z,55.19
2022-09-02T03:16:10.299Z,55.49
2022-09-02T03:21:16.056Z,55.76
2022-09-02T03:26:24.512Z,55.84
2022-09-02T03:31:29.343Z,56.09
2022-09-02T03:36:36.605Z,56.07
2022-09-02T03:41:42.428Z,56.55
2022-09-02T03:46:46.419Z,56.47
2022-09-02T03:51:49.394Z,56.74
2022-09-02T03:56:54.185Z,56.55
2022-09-02T04:01:57.192Z,56.80
2022-09-02T04:07:01.055Z,57.05
2022-09-02T04:12:07.096Z,57.33
2022-09-02T04:17:11.076Z,57.35
2022-09-02T04:22:13.988Z,57.82
2022-09-02T04:27:18.290Z,58.04
2022-09-02T04:32:22.680Z,58.33
2022-09-02T04:37:27.597Z,58.87
2022-09-02T04:42:32.569Z,58.81
2022-09-02T04:47:35.500Z,59.12
2022-09-02T04:52:39.675Z,59.18
2022-09-02T04:57:44.140Z,59.30
2022-09-02T05:02:47.406Z,59.46
2022-09-02T05:07:51.250Z,59.62
2022-09-02T05:12:55.992Z,59.81
2022-09-02T05:17:59.535Z,59.86
2022-09-02T05:23:02.460Z,60.54
2022-09-02T05:28:08.817Z,59.37
2022-09-02T05:33:13.506Z,58.59
2022-09-02T05:38:18.833Z,58.04
2022-09-02T05:43:24.821Z,58.04
2022-09-02T05:48:45.700Z,57.20
2022-09-02T05:53:48.938Z,56.70
2022-09-02T05:58:55.609Z,56.23
2022-09-02T06:03:58.864Z,56.20
2022-09-02T06:09:04.245Z,56.20
2022-09-02T06:14:09.488Z,55.43
2022-09-02T06:19:19.154Z,55.19
2022-09-02T06:24:25.081Z,54.78
2022-09-02T06:29:29.507Z,53.94
2022-09-02T06:34:32.934Z,53.79
2022-09-02T06:39:37.716Z,53.11
2022-09-02T06:44:42.366Z,52.76
2022-09-02T06:49:45.362Z,52.80
2022-09-02T06:54:49.104Z,51.86
2022-09-02T06:59:53.322Z,50.89
2022-09-02T07:05:10.955Z,50.38
2022-09-02T07:10:15.485Z,49.77
2022-09-02T07:15:24.680Z,48.75
2022-09-02T07:20:28.399Z,48.47
2022-09-02T07:25:35.457Z,47.72
2022-09-02T07:30:42.837Z,46.73
2022-09-02T07:35:53.102Z,46.63
2022-09-02T07:40:57.377Z,46.73
2022-09-02T07:46:05.743Z,45.62
2022-09-02T07:51:09.720Z,45.73
2022-09-02T07:56:15.164Z,44.54
2022-09-02T08:01:23.532Z,44.52
2022-09-02T08:06:34.586Z,43.85
2022-09-02T08:11:39.784Z,42.64
2022-09-02T08:16:44.255Z,41.83
2022-09-02T08:21:47.101Z,41.59
2022-09-02T08:26:49.915Z,41.03
2022-09-02T08:31:54.345Z,40.51
2022-09-02T08:36:58.070Z,40.24
2022-09-02T08:42:09.720Z,39.51
2022-09-02T08:47:22.949Z,38.83
2022-09-02T08:52:32.270Z,38.85
2022-09-02T08:57:36.229Z,38.84
2022-09-02T09:02:57.909Z,37.62
2022-09-02T09:08:09.750Z,37.77
2022-09-02T09:13:47.053Z,37.13
2022-09-02T09:18:58.323Z,37.25
2022-09-02T09:24:05.012Z,37.14
2022-09-02T09:29:08.257Z,36.11
2022-09-02T09:34:14.000Z,35.96
2022-09-02T09:39:22.436Z,36.16
2022-09-02T09:44:40.971Z,35.52
2022-09-02T09:49:45.133Z,34.75
2022-09-02T09:54:47.919Z,34.17
2022-09-02T09:59:55.991Z,34.38
2022-09-02T10:05:17.980Z,34.62
2022-09-02T10:10:23.510Z,34.31
2022-09-02T10:15:35.734Z,33.67
2022-09-02T10:31:36.375Z,31.47
2022-09-02T10:36:58.763Z,32.26
2022-09-02T10:42:07.553Z,32.05
2022-09-02T10:47:18.702Z,30.34
2022-09-02T10:52:38.428Z,28.60
2022-09-02T10:57:49.495Z,28.28
2022-09-02T11:02:56.529Z,27.51
2022-09-02T11:08:09.773Z,26.62
2022-09-02T11:13:19.959Z,26.34
2022-09-02T11:18:28.205Z,25.82
2022-09-02T11:23:39.511Z,24.08
2022-09-02T11:28:49.176Z,24.52
2022-09-02T11:33:59.431Z,24.51
2022-09-02T11:39:09.290Z,24.80
2022-09-02T11:45:03.942Z,23.14
2022-09-02T11:50:24.213Z,23.42
2022-09-02T11:55:34.774Z,24.11
2022-09-02T12:01:02.924Z,23.25
2022-09-02T12:06:13.624Z,23.17
2022-09-02T12:11:39.881Z,22.34
2022-09-02T12:16:45.832Z,22.78
2022-09-02T12:22:23.543Z,23.64
2022-09-02T12:27:31.495Z,23.67
2022-09-02T12:33:05.069Z,23.18
2022-09-02T12:38:42.812Z,22.98
2022-09-02T12:43:57.620Z,20.29
2022-09-02T12:49:06.752Z,21.03
2022-09-02T12:54:09.696Z,20.69
2022-09-02T12:59:28.097Z,18.90
2022-09-02T13:04:40.077Z,19.40
2022-09-02T13:10:00.726Z,22.74
2022-09-02T13:15:23.594Z,25.47
2022-09-02T13:20:55.793Z,27.85
2022-09-02T13:26:45.448Z,27.29
2022-09-02T13:32:00.399Z,27.65
2022-09-02T13:37:03.209Z,28.11
2022-09-02T13:42:15.937Z,28.93
2022-09-02T13:47:23.061Z,29.29
2022-09-02T13:53:01.124Z,29.46
2022-09-02T13:57:58.051Z,29.54
2022-09-02T14:03:06.235Z,29.53
2022-09-02T14:08:14.865Z,29.62
2022-09-02T14:13:18.281Z,28.30
2022-09-02T14:18:25.471Z,28.77
2022-09-02T14:23:29.671Z,28.89
2022-09-02T14:28:34.723Z,27.30
2022-09-02T14:33:45.076Z,28.51
2022-09-02T14:38:54.565Z,27.82
2022-09-02T14:43:59.285Z,27.18
2022-09-02T14:49:06.655Z,29.15
2022-09-02T14:54:09.964Z,28.03
2022-09-02T14:59:12.804Z,28.31
2022-09-02T15:04:17.084Z,29.72
2022-09-02T15:09:19.914Z,30.44
2022-09-02T15:14:22.712Z,30.36
2022-09-02T15:19:26.936Z,30.13
2022-09-02T15:24:29.716Z,30.23
2022-09-02T15:29:32.890Z,30.15
2022-09-02T15:34:37.039Z,29.42
2022-09-02T15:39:39.930Z,29.08
2022-09-02T15:44:42.763Z,27.94
2022-09-02T15:49:47.145Z,27.98
2022-09-02T15:54:50.104Z,27.92
2022-09-02T15:59:52.898Z,27.69
2022-09-02T16:04:57.183Z,27.55
2022-09-02T16:10:03.363Z,27.94
2022-09-02T16:15:07.825Z,28.10
2022-09-02T16:20:12.645Z,27.43
2022-09-02T16:25:15.670Z,27.70
2022-09-02T16:30:18.773Z,27.79
2022-09-02T16:35:22.937Z,27.81
2022-09-02T16:40:25.759Z,28.16
2022-09-02T16:45:28.577Z,28.24
2022-09-02T16:50:32.779Z,28.56
2022-09-02T16:55:37.689Z,29.17
2022-09-02T17:00:41.838Z,29.78
2022-09-02T17:05:47.944Z,29.43
2022-09-02T17:10:50.921Z,29.58
2022-09-02T17:15:54.040Z,29.95
2022-09-02T17:21:18.044Z,30.92
2022-09-02T17:26:22.549Z,31.37
2022-09-02T17:31:27.658Z,31.76
2022-09-02T17:36:33.595Z,32.28
2022-09-02T17:41:54.332Z,32.93
2022-09-02T17:46:57.101Z,33.16
2022-09-02T17:52:01.336Z,33.96
2022-09-02T17:57:10.310Z,34.26
2022-09-02T18:02:34.556Z,34.72
2022-09-02T18:07:44.862Z,35.04
2022-09-02T18:12:48.094Z,35.49
2022-09-02T18:17:53.963Z,35.34
2022-09-02T18:23:20.355Z,35.58
2022-09-02T18:28:34.901Z,35.56
2022-09-02T18:33:53.545Z,35.96
2022-09-02T18:39:15.652Z,36.07
2022-09-02T18:44:34.016Z,36.11
2022-09-02T18:49:39.590Z,36.17
2022-09-02T18:54:50.649Z,36.31
2022-09-02T19:00:01.173Z,36.33
2022-09-02T19:05:07.170Z,36.71
2022-09-02T19:10:14.150Z,37.01
2022-09-02T19:15:17.417Z,37.32
2022-09-02T19:20:20.318Z,37.51
2022-09-02T19:25:27.471Z,37.79
2022-09-02T19:30:36.030Z,37.81
2022-09-02T19:35:46.423Z,38.11
2022-09-02T19:40:50.564Z,38.16
2022-09-02T19:45:53.577Z,38.26
2022-09-02T19:50:56.500Z,38.64
2022-09-02T19:56:01.325Z,38.52
2022-09-02T20:01:05.493Z,38.29
2022-09-02T20:06:08.720Z,38.69
2022-09-02T20:11:12.963Z,38.69
2022-09-02T20:16:20.119Z,38.76
2022-09-02T20:21:24.826Z,38.96
2022-09-02T20:26:49.138Z,39.27
2022-09-02T20:32:07.474Z,39.22
2022-09-02T20:37:23.140Z,39.47
2022-09-02T20:42:48.313Z,40.12
2022-09-02T20:48:06.146Z,39.98
2022-09-02T20:53:25.215Z,39.68
2022-09-02T20:58:40.826Z,39.78
2022-09-02T21:03:52.862Z,40.18
2022-09-02T21:09:02.251Z,40.15
2022-09-02T21:14:13.578Z,39.98
2022-09-02T21:19:22.052Z,40.23
2022-09-02T21:24:32.540Z,39.87
2022-09-02T21:29:46.267Z,39.88
2022-09-02T21:34:55.223Z,40.41
2022-09-02T21:40:04.705Z,40.39
2022-09-02T21:45:20.088Z,40.21
2022-09-02T21:50:28.109Z,40.12
2022-09-02T21:55:54.420Z,40.38
2022-09-02T22:01:04.065Z,40.55
2022-09-02T22:06:14.600Z,40.19
2022-09-02T22:11:26.577Z,40.48
2022-09-02T22:16:45.707Z,41.02
2022-09-02T22:21:50.749Z,40.62
2022-09-02T22:26:56.897Z,40.52
2022-09-02T22:32:02.706Z,41.17
2022-09-02T22:37:09.594Z,41.07
2022-09-02T22:42:21.372Z,41.01
2022-09-02T22:47:43.824Z,41.39
2022-09-02T22:52:54.573Z,41.88
2022-09-02T22:58:05.324Z,41.87
2022-09-02T23:03:16.917Z,42.07
2022-09-02T23:08:22.033Z,42.00
2022-09-02T23:13:43.506Z,42.17
2022-09-02T23:19:04.015Z,42.16
2022-09-02T23:24:19.836Z,42.26
2022-09-02T23:29:26.430Z,42.44
2022-09-02T23:34:48.070Z,42.62
2022-09-02T23:40:00.836Z,42.49
2022-09-02T23:45:10.145Z,42.43
2022-09-02T23:50:32.366Z,43.08
2022-09-02T23:55:44.601Z,43.14
